• Join FlightAware (Why Join?)
  • Login
  • US Flag 
08:47PM EST


 

Airport Tracker/Info


-or-


 

Live Flight TrackerFlight Track Log ✈ UCA3598 ✈ 26-Sep-2013 ✈ KIAD - KBGM

Flight Track Log - Related Links

Times and Time Zones

All times are in EDT time to prevent confusion due to time zone crossing. See the UCA3598 flight status page for this flight to view local times or setup timezone preferences in your user account.

Time Position Orientation Groundspeed Altitude Reporting Facility
EDT Latitude Longitude Course Direction KTS MPH feet Rate Location/Type
10:26PM 39.0000 -77.4833 North 173 199 2,900  Level Potomac TRACON
10:27PM 39.0500 -77.5167 333° Northwest 176 203 4,500 1,500 Climbing Potomac TRACON
10:29PM 39.1331 -77.5503 343° North 179 206 7,300 1,380 Climbing Washington Center
10:30PM 39.1811 -77.5464 North 172 198 8,600 1,320 Climbing Washington Center
10:31PM 39.2979 -77.3080 North  Level Estimated
10:31PM 39.2289 -77.5503 356° North 172 198 10,000  Level Washington Center
10:32PM 39.2725 -77.5542 356° North 167 192 11,000 480 Climbing Washington Center
10:33PM 39.3308 -77.5556 359° North 178 205 11,000  Level Washington Center
10:34PM 39.3933 -77.5547 North 201 231 11,100 540 Climbing Washington Center
10:35PM 39.4500 -77.5347 15° North 211 243 12,100 900 Climbing Washington Center
10:36PM 39.5089 -77.5119 17° North 211 243 12,900 900 Climbing Washington Center
10:37PM 39.5656 -77.4867 19° North 216 249 14,000 960 Climbing Washington Center
10:39PM 39.6739 -77.4550 13° North 215 247 15,800 1,020 Climbing New York Center
10:40PM 39.7344 -77.4528 North 210 242 17,000 600 Climbing New York Center
10:41PM 39.7958 -77.4397 North 215 247 17,000  Level New York Center
10:42PM 39.8603 -77.4025 24° Northeast 232 267 17,000  Level New York Center
10:43PM 39.9269 -77.3681 22° Northeast 243 280 17,000  Level New York Center
10:44PM 39.9956 -77.3339 21° North 248 285 17,000  Level New York Center
10:44PM 40.0622 -77.2994 22° Northeast 259 298 17,000  Level New York Center
10:46PM 40.1222 -77.2672 22° Northeast 254 292 17,000  Level New York Center
10:47PM 40.1953 -77.2278 22° Northeast 254 292 17,000 -60 Level New York Center
10:48PM 40.2556 -77.1925 24° Northeast 259 298 16,900 -60 Descending New York Center
10:49PM 40.3306 -77.1558 20° North 259 298 16,900  Level New York Center
10:50PM 40.3886 -77.1231 23° Northeast 259 298 16,900  Level New York Center
10:51PM 40.4658 -77.0839 21° North 259 298 16,900  Level New York Center
10:52PM 40.5219 -77.0481 26° Northeast 259 298 16,900  Level New York Center
10:53PM 40.5989 -77.0086 21° North 259 298 16,900  Level New York Center
10:53PM 40.6569 -76.9756 23° Northeast 259 298 16,900  Level New York Center
10:55PM 40.7300 -76.9356 23° Northeast 259 298 17,000  Climbing New York Center
10:56PM 40.7922 -76.9028 22° Northeast 259 298 17,000  Level New York Center
10:56PM 40.8672 -76.8628 22° Northeast 259 298 17,000  Level New York Center
10:58PM 40.9272 -76.8297 23° Northeast 259 298 17,000  Level New York Center
10:59PM 41.0000 -76.7894 23° Northeast 259 298 17,000  Level New York Center
11:00PM 41.0667 -76.7514 23° Northeast 259 298 17,000  Level New York Center
11:01PM 41.1350 -76.7161 21° North 259 298 17,000  Level New York Center
11:02PM 41.1953 -76.6800 24° Northeast 259 298 17,000  Level New York Center
11:03PM 41.2594 -76.6442 23° Northeast 259 298 17,000  Level New York Center
11:04PM 41.3344 -76.6039 22° Northeast 259 298 17,000  Level New York Center
11:05PM 41.4008 -76.5653 24° Northeast 259 298 17,000 -60 Level New York Center
11:06PM 41.4672 -76.5267 24° Northeast 259 298 16,900 -600 Descending New York Center
11:07PM 41.5314 -76.4933 21° North 259 298 15,900 -1,080 Descending New York Center
11:08PM 41.6064 -76.4500 23° Northeast 271 312 14,800 -1,440 Descending New York Center
11:08PM 41.6814 -76.4036 25° Northeast 277 319 13,100 -1,860 Descending New York Center
11:10PM 41.7361 -76.3497 36° Northeast 250 288 11,100 -2,100 Descending New York Center
11:11PM 41.7844 -76.2953 40° Northeast 229 264 8,900 -2,220 Descending New York Center
11:11PM 41.8283 -76.2461 40° Northeast 224 258 6,700 -2,220 Descending New York Center
11:13PM 41.8767 -76.1944 39° Northeast 224 258 4,500 -1,380 Descending New York Center
11:14PM 41.9333 -76.1350 38° Northeast 224 258 4,000 -300 Descending New York Center
11:14PM 41.9856 -76.0861 35° Northeast 224 258 4,000  Level New York Center
11:15PM 42.0372 -76.0483 29° Northeast 217 250 4,000  Level New York Center
11:17PM 42.0822 -76.0183 26° Northeast 212 244 4,000 -300 Level New York Center
11:18PM 42.1217 -75.9742 40° Northeast 192 221 3,400 -720 Descending New York Center
11:18PM 42.1500 -75.9456 37° Northeast 157 181 2,600 -720 Descending New York Center
11:19PM 42.1808 -75.9564 345° North 109 125 2,100 3,180 Descending New York Center
11:20PM 42.2164 -75.9508 North 109 125 9,000 3,360 Climbing New York Center
11:22PM 42.2478 -75.9447 North 109 125 9,000  Level New York Center